createdAt,value
2022-10-01T00:01:00.387Z,99646.47
2022-10-01T00:05:04.806Z,99647.25
2022-10-01T00:09:07.680Z,99640.94
2022-10-01T00:13:11.018Z,99650.63
2022-10-01T00:17:13.831Z,99613.84
2022-10-01T00:21:19.931Z,99620.19
2022-10-01T00:25:22.819Z,99593.03
2022-10-01T00:29:25.649Z,99587.09
2022-10-01T00:33:28.342Z,99579.38
2022-10-01T00:37:35.385Z,99582.34
2022-10-01T00:41:38.675Z,99567.66
2022-10-01T00:45:41.522Z,99550.91
2022-10-01T00:49:46.686Z,99546.88
2022-10-01T00:53:50.823Z,99546.50
2022-10-01T00:57:55.464Z,99536.34
2022-10-01T01:01:58.530Z,99516.38
2022-10-01T01:06:01.374Z,99500.88
2022-10-01T01:10:07.394Z,99492.19
2022-10-01T01:14:18.684Z,99475.88
2022-10-01T01:18:27.797Z,99476.94
2022-10-01T01:22:35.895Z,99451.63
2022-10-01T01:26:51.069Z,99419.63
2022-10-01T01:31:01.329Z,99428.53
2022-10-01T01:35:08.270Z,99425.84
2022-10-01T01:39:15.450Z,99444.19
2022-10-01T01:43:22.725Z,99440.38
2022-10-01T01:47:33.612Z,99431.06
2022-10-01T01:51:44.657Z,99437.78
2022-10-01T01:55:49.513Z,99474.09
2022-10-01T01:59:52.283Z,99453.53
2022-10-01T02:03:56.926Z,99446.81
2022-10-01T02:08:27.939Z,99442.31
2022-10-01T02:12:43.372Z,99455.41
2022-10-01T02:16:51.420Z,99439.84
2022-10-01T02:21:03.878Z,99424.13
2022-10-01T02:25:09.783Z,99409.25
2022-10-01T02:29:17.526Z,99424.88
2022-10-01T02:33:24.326Z,99435.56
2022-10-01T02:37:29.586Z,99418.53
2022-10-01T02:41:36.650Z,99416.66
2022-10-01T02:45:42.138Z,99398.56
2022-10-01T02:49:45.315Z,99379.03
2022-10-01T02:53:54.080Z,99378.69
2022-10-01T02:57:57.856Z,99367.25
2022-10-01T03:02:00.844Z,99355.16
2022-10-01T03:06:03.787Z,99346.53
2022-10-01T03:10:09.678Z,99367.47
2022-10-01T03:14:12.425Z,99327.28
2022-10-01T03:18:15.116Z,99313.59
2022-10-01T03:22:20.995Z,99328.94
2022-10-01T03:26:25.245Z,99313.94
2022-10-01T03:30:28.465Z,99301.66
2022-10-01T03:34:31.327Z,99216.44
2022-10-01T03:38:34.205Z,99230.53
2022-10-01T03:42:38.381Z,99234.50
2022-10-01T03:46:41.222Z,99243.97
2022-10-01T03:50:43.936Z,99292.44
2022-10-01T03:54:46.719Z,99254.91
2022-10-01T03:58:51.250Z,99264.91
2022-10-01T04:02:54.131Z,99273.22
2022-10-01T04:06:56.917Z,99240.97
2022-10-01T04:11:00.998Z,99250.75
2022-10-01T04:15:05.554Z,99274.59
2022-10-01T04:19:08.350Z,99242.28
2022-10-01T04:23:11.066Z,99259.03
2022-10-01T04:27:13.870Z,99305.53
2022-10-01T04:31:27.093Z,99276.09
2022-10-01T04:35:30.131Z,99277.25
2022-10-01T04:39:32.858Z,99264.13
2022-10-01T04:43:35.698Z,99261.31
2022-10-01T04:47:40.122Z,99266.22
2022-10-01T04:51:42.784Z,99280.00
2022-10-01T04:55:46.569Z,99266.41
2022-10-01T04:59:51.033Z,99275.72
2022-10-01T05:03:55.306Z,99271.97
2022-10-01T05:07:58.173Z,99283.53
2022-10-01T05:12:01.608Z,99288.22
2022-10-01T05:16:04.493Z,99283.53
2022-10-01T05:20:11.964Z,99274.19
2022-10-01T05:24:16.282Z,99294.28
2022-10-01T05:28:22.406Z,99296.28
2022-10-01T05:32:25.615Z,99279.88
2022-10-01T05:36:29.830Z,99284.09
2022-10-01T05:40:33.362Z,99288.53
2022-10-01T05:44:38.036Z,99299.34
2022-10-01T05:48:40.814Z,99300.50
2022-10-01T05:52:54.646Z,99309.25
2022-10-01T05:56:57.627Z,99312.81
2022-10-01T06:01:00.472Z,99328.31
2022-10-01T06:05:03.212Z,99323.56
2022-10-01T06:09:07.555Z,99331.28
2022-10-01T06:13:10.622Z,99345.53
2022-10-01T06:17:13.451Z,99351.31
2022-10-01T06:21:16.820Z,99347.97
2022-10-01T06:25:20.973Z,99347.16
2022-10-01T06:29:24.229Z,99352.13
2022-10-01T06:33:26.976Z,99348.34
2022-10-01T06:37:29.922Z,99360.47
2022-10-01T06:41:34.707Z,99366.31
2022-10-01T06:45:40.773Z,99360.34
2022-10-01T06:49:47.321Z,99358.41
2022-10-01T06:53:50.400Z,99360.63
2022-10-01T06:57:58.653Z,99373.91
2022-10-01T07:02:01.517Z,99368.47
2022-10-01T07:06:08.174Z,99376.72
2022-10-01T07:10:12.803Z,99375.47
2022-10-01T07:14:16.847Z,99379.69
2022-10-01T07:18:19.802Z,99393.28
2022-10-01T07:22:24.346Z,99401.00
2022-10-01T07:26:27.109Z,99414.25
2022-10-01T07:30:31.314Z,99426.06
2022-10-01T07:34:34.155Z,99415.41
2022-10-01T07:38:37.227Z,99424.22
2022-10-01T07:42:40.468Z,99426.91
2022-10-01T07:46:44.815Z,99438.88
2022-10-01T07:50:47.681Z,99442.00
2022-10-01T07:54:50.518Z,99454.34
2022-10-01T07:58:56.358Z,99449.59
2022-10-01T08:03:00.694Z,99471.00
2022-10-01T08:07:03.555Z,99465.06
2022-10-01T08:11:07.221Z,99468.47
2022-10-01T08:15:11.463Z,99467.44
2022-10-01T08:19:15.821Z,99482.84
2022-10-01T08:23:18.755Z,99493.63
2022-10-01T08:27:21.600Z,99497.34
2022-10-01T08:31:25.019Z,99508.47
2022-10-01T08:35:30.255Z,99499.75
2022-10-01T08:39:33.127Z,99504.25
2022-10-01T08:43:40.018Z,99495.59
2022-10-01T08:47:49.453Z,99510.41
2022-10-01T08:51:59.339Z,99519.34
2022-10-01T08:56:03.680Z,99540.81
2022-10-01T09:00:12.906Z,99538.72
2022-10-01T09:04:15.932Z,99540.31
2022-10-01T09:08:43.597Z,99557.31
2022-10-01T09:12:55.056Z,99579.59
2022-10-01T09:17:06.445Z,99569.97
2022-10-01T09:21:18.834Z,99573.50
2022-10-01T09:25:25.443Z,99578.06
2022-10-01T09:29:33.867Z,99570.50
2022-10-01T09:33:39.530Z,99566.22
2022-10-01T09:37:50.390Z,99578.06
2022-10-01T09:41:54.552Z,99568.78
2022-10-01T09:45:57.811Z,99566.97
2022-10-01T09:50:04.720Z,99575.16
2022-10-01T09:54:17.111Z,99573.34
2022-10-01T09:58:24.297Z,99534.13
2022-10-01T10:02:32.835Z,99504.81
2022-10-01T10:06:35.882Z,99493.53
2022-10-01T10:10:40.457Z,99499.13
2022-10-01T10:14:45.120Z,99504.13
2022-10-01T10:18:52.485Z,99506.94
2022-10-01T10:22:55.414Z,99507.63
2022-10-01T10:26:59.764Z,99502.13
2022-10-01T10:31:04.108Z,99514.28
2022-10-01T10:35:13.451Z,99521.69
2022-10-01T10:39:22.765Z,99509.41
2022-10-01T10:43:30.678Z,99525.50
2022-10-01T10:47:46.670Z,99529.16
2022-10-01T10:51:54.194Z,99549.09
2022-10-01T10:55:59.714Z,99555.16
2022-10-01T11:00:08.332Z,99547.91
2022-10-01T11:04:25.850Z,99570.09
2022-10-01T11:08:29.282Z,99564.16
2022-10-01T11:12:46.924Z,99564.03
2022-10-01T11:17:13.028Z,99561.94
2022-10-01T11:21:37.301Z,99570.47
2022-10-01T11:25:52.890Z,99578.31
2022-10-01T11:30:05.182Z,99590.03
2022-10-01T11:34:34.251Z,99603.84
2022-10-01T11:38:48.229Z,99611.53
2022-10-01T11:42:52.946Z,99621.38
2022-10-01T11:47:01.249Z,99638.94
2022-10-01T11:51:09.680Z,99640.59
2022-10-01T11:55:36.785Z,99619.28
2022-10-01T11:59:45.068Z,99596.66
2022-10-01T12:04:08.351Z,99597.84
2022-10-01T12:08:17.514Z,99599.25
2022-10-01T12:12:28.057Z,99607.19
2022-10-01T12:16:42.328Z,99605.47
2022-10-01T12:20:49.791Z,99635.94
2022-10-01T12:24:53.393Z,99621.34
2022-10-01T12:29:02.053Z,99624.22
2022-10-01T12:33:35.872Z,99619.59
2022-10-01T12:37:50.891Z,99617.53
2022-10-01T12:42:04.527Z,99637.84
2022-10-01T12:46:18.570Z,99653.34
2022-10-01T12:50:35.648Z,99662.00
2022-10-01T12:55:10.973Z,99646.47
2022-10-01T12:59:30.619Z,99651.66
2022-10-01T13:03:47.575Z,99659.53
2022-10-01T13:08:03.462Z,99659.38
2022-10-01T13:12:23.300Z,99654.84
2022-10-01T13:16:33.597Z,99670.06
2022-10-01T13:20:44.781Z,99671.78
2022-10-01T13:24:54.707Z,99688.38
2022-10-01T13:29:08.190Z,99687.56
2022-10-01T13:33:24.235Z,99681.44
2022-10-01T13:37:37.744Z,99703.22
2022-10-01T13:41:41.418Z,99687.03
2022-10-01T13:45:47.221Z,99699.09
2022-10-01T13:49:59.673Z,99697.03
2022-10-01T13:54:07.950Z,99699.69
2022-10-01T13:58:25.523Z,99715.03
2022-10-01T14:02:36.841Z,99719.22
2022-10-01T14:06:45.250Z,99733.28
2022-10-01T14:11:14.646Z,99730.25
2022-10-01T14:15:52.633Z,99746.09
2022-10-01T14:19:55.926Z,99749.94
2022-10-01T14:24:06.231Z,99737.16
2022-10-01T14:28:21.675Z,99742.78
2022-10-01T14:32:35.974Z,99772.16
2022-10-01T14:36:44.560Z,99756.91
2022-10-01T14:40:49.172Z,99768.34
2022-10-01T14:44:53.484Z,99760.31
2022-10-01T14:49:00.688Z,99773.63
2022-10-01T14:53:03.886Z,99784.75
2022-10-01T14:57:11.512Z,99791.91
2022-10-01T15:01:20.498Z,99796.28
2022-10-01T15:05:25.371Z,99812.06
2022-10-01T15:09:34.704Z,99813.72
2022-10-01T15:13:39.751Z,99818.41
2022-10-01T15:17:44.273Z,99823.81
2022-10-01T15:21:51.688Z,99818.47
2022-10-01T15:25:55.922Z,99829.78
2022-10-01T15:29:59.749Z,99824.94
2022-10-01T15:34:06.263Z,99844.53
2022-10-01T15:38:11.755Z,99846.38
2022-10-01T15:42:23.698Z,99865.03
2022-10-01T15:46:31.414Z,99866.44
2022-10-01T15:50:39.310Z,99866.44
2022-10-01T15:54:44.580Z,99874.13
2022-10-01T15:58:53.317Z,99879.06
2022-10-01T16:02:58.457Z,99891.38
2022-10-01T16:07:02.887Z,99891.84
2022-10-01T16:11:16.827Z,99901.59
2022-10-01T16:15:27.283Z,99906.56
2022-10-01T16:19:31.589Z,99918.47
2022-10-01T16:23:43.137Z,99929.78
2022-10-01T16:27:47.917Z,99919.28
2022-10-01T16:31:51.627Z,99922.28
2022-10-01T16:36:08.233Z,99922.69
2022-10-01T16:40:16.139Z,99939.06
2022-10-01T16:44:20.152Z,99953.97
2022-10-01T16:48:23.345Z,99971.34
2022-10-01T16:52:26.277Z,99978.97
2022-10-01T16:56:30.306Z,99978.66
2022-10-01T17:00:34.163Z,99988.56
2022-10-01T17:04:36.927Z,100000.88
2022-10-01T17:08:39.829Z,100006.97
2022-10-01T17:12:44.734Z,100016.31
2022-10-01T17:16:48.611Z,100022.88
2022-10-01T17:20:51.462Z,100040.88
2022-10-01T17:24:54.375Z,100038.88
2022-10-01T17:28:58.777Z,100058.59
2022-10-01T17:33:02.644Z,100070.50
2022-10-01T17:37:05.354Z,100085.28
2022-10-01T17:41:08.777Z,100099.97
2022-10-01T17:45:14.777Z,100114.25
2022-10-01T17:49:17.974Z,100115.75
2022-10-01T17:53:20.663Z,100133.47
2022-10-01T17:57:24.053Z,100138.28
2022-10-01T18:01:28.283Z,100153.56
2022-10-01T18:05:31.230Z,100151.97
2022-10-01T18:09:33.959Z,100168.66
2022-10-01T18:13:38.043Z,100173.22
2022-10-01T18:17:43.737Z,100184.00
2022-10-01T18:21:53.925Z,100191.06
2022-10-01T18:25:56.675Z,100194.75
2022-10-01T18:29:59.636Z,100202.47
2022-10-01T18:34:07.044Z,100206.19
2022-10-01T18:38:20.859Z,100224.63
2022-10-01T18:42:29.858Z,100231.00
2022-10-01T18:46:47.321Z,100229.56
2022-10-01T18:50:58.731Z,100252.53
2022-10-01T18:55:21.675Z,100253.88
2022-10-01T18:59:39.435Z,100266.81
2022-10-01T19:04:10.020Z,100276.72
2022-10-01T19:08:38.532Z,100269.41
2022-10-01T19:12:53.422Z,100274.09
2022-10-01T19:17:08.717Z,100292.84
2022-10-01T19:21:22.853Z,100285.31
2022-10-01T19:25:33.373Z,100292.13
2022-10-01T19:29:55.661Z,100295.34
2022-10-01T19:34:06.130Z,100300.09
2022-10-01T19:38:15.737Z,100301.91
2022-10-01T19:42:24.701Z,100313.84
2022-10-01T19:46:33.466Z,100307.41
2022-10-01T19:50:41.920Z,100307.75
2022-10-01T19:54:49.880Z,100312.16
2022-10-01T19:58:54.550Z,100322.28
2022-10-01T20:03:05.733Z,100331.97
2022-10-01T20:07:12.301Z,100340.84
2022-10-01T20:11:20.771Z,100338.50
2022-10-01T20:15:34.809Z,100348.53
2022-10-01T20:19:43.528Z,100348.88
2022-10-01T20:23:52.408Z,100357.88
2022-10-01T20:28:05.276Z,100348.66
2022-10-01T20:32:17.401Z,100363.34
2022-10-01T20:36:25.788Z,100364.88
2022-10-01T20:40:33.171Z,100370.63
2022-10-01T20:44:39.086Z,100370.38
2022-10-01T20:48:48.764Z,100373.84
2022-10-01T20:53:04.761Z,100396.16
2022-10-01T20:57:15.398Z,100396.66
2022-10-01T21:01:21.487Z,100396.97
2022-10-01T21:05:29.857Z,100404.56
2022-10-01T21:09:37.061Z,100404.41
2022-10-01T21:13:47.657Z,100395.25
2022-10-01T21:18:01.018Z,100397.53
2022-10-01T21:22:19.903Z,100406.84
2022-10-01T21:26:35.559Z,100406.44
2022-10-01T21:30:53.668Z,100409.03
2022-10-01T21:35:07.683Z,100422.59
2022-10-01T21:39:17.906Z,100428.09
2022-10-01T21:43:37.398Z,100439.72
2022-10-01T21:48:08.089Z,100441.66
2022-10-01T21:52:23.725Z,100451.66
2022-10-01T21:56:55.223Z,100462.19
2022-10-01T22:01:10.109Z,100466.53
2022-10-01T22:05:24.735Z,100468.81
2022-10-01T22:09:34.540Z,100479.47
2022-10-01T22:13:42.478Z,100492.09
2022-10-01T22:17:47.975Z,100498.06
2022-10-01T22:21:56.187Z,100506.63
2022-10-01T22:26:01.942Z,100518.44
2022-10-01T22:30:11.920Z,100531.72
2022-10-01T22:34:19.949Z,100523.00
2022-10-01T22:38:27.620Z,100524.59
2022-10-01T22:42:33.619Z,100529.38
2022-10-01T22:46:55.861Z,100531.03
2022-10-01T22:51:11.979Z,100531.56
2022-10-01T22:55:27.304Z,100539.19
2022-10-01T22:59:41.143Z,100539.66
2022-10-01T23:03:57.029Z,100546.22
2022-10-01T23:08:05.333Z,100542.81
2022-10-01T23:12:16.734Z,100551.41
2022-10-01T23:16:31.593Z,100542.09
2022-10-01T23:20:43.921Z,100557.22
2022-10-01T23:25:01.702Z,100547.75
2022-10-01T23:29:16.819Z,100546.72
2022-10-01T23:33:45.150Z,100561.31
2022-10-01T23:38:09.161Z,100566.13
2022-10-01T23:42:22.230Z,100556.47
2022-10-01T23:46:28.607Z,100549.72
2022-10-01T23:50:34.353Z,100538.50
2022-10-01T23:54:45.786Z,100546.84
2022-10-01T23:58:55.201Z,100557.25
